createdAt,value
2022-10-16T15:22:58.106Z,98827.02
2022-10-16T15:25:35.006Z,98831.09
2022-10-16T15:28:08.067Z,98832.04
2022-10-16T15:30:41.300Z,98829.88
2022-10-16T15:33:17.217Z,98838.25
2022-10-16T15:35:52.772Z,98840.75
2022-10-16T15:38:27.282Z,98845.87
2022-10-16T15:40:59.475Z,98849.22
2022-10-16T15:43:31.476Z,98855.61
2022-10-16T15:46:06.839Z,98859.61
2022-10-16T15:48:39.083Z,98859.90
2022-10-16T15:51:11.754Z,98860.29
2022-10-16T15:53:43.745Z,98856.44
2022-10-16T15:56:19.534Z,98858.23
2022-10-16T15:58:51.861Z,98866.05
2022-10-16T16:01:23.966Z,98872.34
2022-10-16T16:03:58.828Z,98870.01
2022-10-16T16:06:31.185Z,98870.20
2022-10-16T16:11:40.246Z,98883.27
2022-10-16T16:14:15.946Z,98884.11
2022-10-16T16:16:48.125Z,98886.48
2022-10-16T16:19:22.010Z,98884.30
2022-10-16T16:21:54.613Z,98888.61
2022-10-16T16:24:26.760Z,98891.79
2022-10-16T16:26:58.890Z,98891.67
2022-10-16T16:29:31.205Z,98895.42
2022-10-16T16:32:04.156Z,98894.69
2022-10-16T16:34:36.111Z,98900.17
2022-10-16T16:37:08.111Z,98899.05
2022-10-16T16:39:40.099Z,98907.20
2022-10-16T16:42:12.310Z,98909.88
2022-10-16T16:44:44.299Z,98920.30
2022-10-16T16:47:16.540Z,98920.77
2022-10-16T16:49:48.789Z,98920.25
2022-10-16T16:52:20.846Z,98929.41
2022-10-16T16:54:53.550Z,98936.53
2022-10-16T16:57:26.422Z,98942.05
2022-10-16T16:59:58.823Z,98945.39
2022-10-16T17:02:33.796Z,98954.23
2022-10-16T17:05:06.106Z,98952.52
2022-10-16T17:07:41.276Z,98952.79
2022-10-16T17:10:13.427Z,98957.17
2022-10-16T17:12:46.566Z,98960.67
2022-10-16T17:15:18.778Z,98959.77
2022-10-16T17:17:51.141Z,98962.23
2022-10-16T17:20:23.184Z,98963.68
2022-10-16T17:22:55.590Z,98966.39
2022-10-16T17:25:29.478Z,98970.65
2022-10-16T17:28:04.848Z,98975.70
2022-10-16T17:30:38.402Z,98978.39
2022-10-16T17:33:11.862Z,98979.23
2022-10-16T17:35:46.918Z,98980.48
2022-10-16T17:38:19.035Z,98984.49
2022-10-16T17:40:50.963Z,98985.67
2022-10-16T17:43:22.944Z,98993.51
2022-10-16T17:45:55.045Z,98996.50
2022-10-16T17:48:27.104Z,98997.02
2022-10-16T17:51:00.193Z,99000.98
2022-10-16T17:53:33.795Z,99002.47
2022-10-16T17:56:11.460Z,99001.84
2022-10-16T17:58:46.515Z,99002.73
2022-10-16T18:01:25.839Z,99006.08
2022-10-16T18:04:00.524Z,99009.64
2022-10-16T18:06:34.324Z,99008.73
2022-10-16T18:09:08.038Z,99013.64
2022-10-16T18:11:40.856Z,99014.77
2022-10-16T18:14:16.079Z,99020.27
2022-10-16T18:16:48.211Z,99024.93
2022-10-16T18:19:21.763Z,99026.32
2022-10-16T18:21:55.751Z,99026.46
2022-10-16T18:24:28.215Z,99028.02
2022-10-16T18:27:00.447Z,99030.50
2022-10-16T18:29:32.875Z,99038.79
2022-10-16T18:32:07.484Z,99045.73
2022-10-16T18:34:39.774Z,99045.55
2022-10-16T18:37:12.628Z,99046.95
2022-10-16T18:39:47.521Z,99048.05
2022-10-16T18:42:19.861Z,99051.80
2022-10-16T18:44:52.755Z,99051.34
2022-10-16T18:47:25.169Z,99052.31
2022-10-16T18:49:57.682Z,99056.48
2022-10-16T18:52:29.715Z,99056.55
2022-10-16T18:55:01.697Z,99059.56
2022-10-16T18:57:33.754Z,99059.91
2022-10-16T19:00:06.346Z,99058.51
2022-10-16T19:02:38.843Z,99061.35
2022-10-16T19:05:15.701Z,99064.89
2022-10-16T19:07:49.800Z,99070.70
2022-10-16T19:10:22.034Z,99071.77
2022-10-16T19:12:55.570Z,99073.35
2022-10-16T19:15:27.759Z,99076.63
2022-10-16T19:17:59.860Z,99080.72
2022-10-16T19:20:31.858Z,99086.38
2022-10-16T19:23:07.495Z,99086.65
2022-10-16T19:25:42.031Z,99089.70
2022-10-16T19:28:14.126Z,99089.89
2022-10-16T19:30:48.601Z,99092.73
2022-10-16T19:33:21.188Z,99093.94
2022-10-16T19:35:53.356Z,99097.45
2022-10-16T19:38:25.366Z,99101.71
2022-10-16T19:40:57.749Z,99104.25
2022-10-16T19:43:29.902Z,99107.07
2022-10-16T19:46:05.849Z,99111.87
2022-10-16T19:48:38.340Z,99113.16
2022-10-16T19:51:14.747Z,99117.63
2022-10-16T19:53:47.522Z,99116.66
2022-10-16T19:56:22.230Z,99118.82
2022-10-16T19:58:57.704Z,99124.64
2022-10-16T20:01:31.971Z,99124.11
2022-10-16T20:04:04.934Z,99126.02
2022-10-16T20:06:37.322Z,99124.84
2022-10-16T20:09:09.296Z,99124.64
2022-10-16T20:11:41.347Z,99123.90
2022-10-16T20:14:13.392Z,99126.00
2022-10-16T20:16:45.444Z,99129.72
2022-10-16T20:19:17.479Z,99131.88
2022-10-16T20:21:49.488Z,99131.66
2022-10-16T20:24:21.611Z,99131.61
2022-10-16T20:26:53.845Z,99130.95
2022-10-16T20:29:26.964Z,99130.56
2022-10-16T20:32:01.254Z,99133.27
2022-10-16T20:34:35.478Z,99138.38
2022-10-16T20:37:08.141Z,99144.45
2022-10-16T20:39:40.162Z,99156.09
2022-10-16T20:42:12.127Z,99159.09
2022-10-16T20:44:46.846Z,99160.13
2022-10-16T20:47:21.267Z,99166.91
2022-10-16T20:49:55.444Z,99169.33
2022-10-16T20:52:27.500Z,99168.61
2022-10-16T20:54:59.472Z,99177.02
2022-10-16T20:57:31.762Z,99179.27
2022-10-16T21:00:04.713Z,99184.22
2022-10-16T21:02:36.942Z,99183.58
2022-10-16T21:05:10.143Z,99183.02
2022-10-16T21:07:42.146Z,99186.10
2022-10-16T21:15:14.691Z,99188.52
2022-10-16T21:18:37.915Z,99190.55
2022-10-16T21:31:30.583Z,99200.50
2022-10-16T21:34:07.235Z,99204.83
2022-10-16T21:36:41.685Z,99206.52
2022-10-16T21:39:20.026Z,99208.02
2022-10-16T21:41:52.823Z,99211.30
2022-10-16T21:44:26.207Z,99216.34
2022-10-16T21:46:58.245Z,99215.17
2022-10-16T21:49:30.730Z,99223.32
2022-10-16T21:52:02.742Z,99229.54
2022-10-16T21:54:34.850Z,99233.27
2022-10-16T21:57:07.243Z,99233.74
2022-10-16T21:59:39.176Z,99231.23
2022-10-16T22:02:13.966Z,99230.77
2022-10-16T22:04:45.984Z,99233.04
2022-10-16T22:07:18.060Z,99233.08
2022-10-16T22:09:50.610Z,99232.93
2022-10-16T22:12:22.676Z,99235.13
2022-10-16T22:14:54.761Z,99238.55
2022-10-16T22:17:27.036Z,99238.91
2022-10-16T22:19:59.295Z,99239.73
2022-10-16T22:22:31.370Z,99239.61
2022-10-16T22:25:03.442Z,99235.84
2022-10-16T22:27:35.512Z,99237.90
2022-10-16T22:30:09.412Z,99236.19
2022-10-16T22:32:41.591Z,99231.33
2022-10-16T22:35:13.733Z,99232.87
2022-10-16T22:37:45.927Z,99231.58
2022-10-16T22:40:18.050Z,99233.90
2022-10-16T22:42:50.578Z,99234.47
2022-10-16T22:45:22.560Z,99236.75
2022-10-16T22:47:54.559Z,99241.52
2022-10-16T22:50:27.689Z,99237.15
2022-10-16T22:52:59.873Z,99238.84
2022-10-16T22:55:32.090Z,99242.40
2022-10-16T22:58:04.028Z,99247.73
2022-10-16T23:00:36.062Z,99250.97
2022-10-16T23:03:08.328Z,99255.35
2022-10-16T23:05:42.972Z,99255.34
2022-10-16T23:08:15.783Z,99253.89
2022-10-16T23:10:49.731Z,99252.52
2022-10-16T23:13:21.862Z,99253.73
2022-10-16T23:15:53.959Z,99253.58
2022-10-16T23:18:26.071Z,99258.39
2022-10-16T23:20:58.045Z,99257.91
2022-10-16T23:23:30.119Z,99263.30
2022-10-16T23:26:02.235Z,99266.10
2022-10-16T23:28:34.930Z,99267.89
2022-10-16T23:31:08.081Z,99268.05
2022-10-16T23:33:40.723Z,99267.13
2022-10-16T23:39:25.548Z,99268.06
2022-10-16T23:41:57.672Z,99271.78
2022-10-16T23:44:29.694Z,99273.74
2022-10-16T23:47:05.029Z,99274.75
2022-10-16T23:49:37.986Z,99279.23
2022-10-16T23:52:14.672Z,99282.11
2022-10-16T23:54:46.835Z,99284.84
2022-10-16T23:57:19.172Z,99285.04
2022-10-16T23:59:51.198Z,99286.69
